Time;durP1;ratioP1;P1;durP2;ratioP2;P2;SDS_P1;SDS_P2;PMS_P1;PMS_P2;Temp;Humidity;BMP_temperature;BMP_pressure;BME280_temperature;BME280_humidity;BME280_pressure;Samples;Min_cycle;Max_cycle;Signal;HPM_P1;HPM_P2
2021/04/19 00:00:58;;;;;;;12.63;11.33;;;;;;;-0.84;96.29;95788.22;5101053;28;20288;-66
2021/04/19 00:03:24;;;;;;;15.33;12.03;;;;;;;-0.90;96.39;95785.16;5101389;28;20227;-67
2021/04/19 00:05:52;;;;;;;14.60;11.00;;;;;;;-1.00;95.41;95784.16;5105344;28;20235;-67
2021/04/19 00:08:19;;;;;;;16.20;11.83;;;;;;;-1.08;95.64;95785.63;5102294;28;20213;-67
2021/04/19 00:10:46;;;;;;;15.87;12.20;;;;;;;-1.13;95.72;95780.78;5096176;28;20641;-67
2021/04/19 00:13:13;;;;;;;12.87;10.43;;;;;;;-1.17;95.38;95777.59;5104722;28;20382;-67
2021/04/19 00:15:41;;;;;;;11.07;10.17;;;;;;;-1.23;95.70;95772.00;5091703;28;20270;-66
2021/04/19 00:18:08;;;;;;;11.30;10.17;;;;;;;-1.29;95.46;95777.63;5100213;27;20252;-67
2021/04/19 00:20:35;;;;;;;11.10;10.07;;;;;;;-1.53;94.75;95777.59;5090294;28;20670;-66
2021/04/19 00:23:03;;;;;;;10.63;9.23;;;;;;;-1.69;94.51;95775.25;5095769;28;20537;-67
2021/04/19 00:25:29;;;;;;;13.00;8.67;;;;;;;-1.74;94.52;95774.72;5103402;28;20242;-67
2021/04/19 00:27:57;;;;;;;10.37;9.27;;;;;;;-1.61;94.55;95779.91;5081313;28;21003;-67
2021/04/19 00:30:25;;;;;;;14.90;10.93;;;;;;;-1.63;95.34;95768.84;5098240;28;20543;-67
2021/04/19 00:32:52;;;;;;;10.70;9.63;;;;;;;-1.60;96.04;95764.25;5102885;28;20558;-67
2021/04/19 00:35:19;;;;;;;11.67;10.33;;;;;;;-1.64;96.70;95772.34;5103939;28;20459;-67
2021/04/19 00:37:46;;;;;;;10.07;8.90;;;;;;;-1.63;97.22;95774.84;5087852;28;21004;-68
2021/04/19 00:40:16;;;;;;;11.20;10.07;;;;;;;-1.69;97.85;95764.06;5086722;28;20468;-67
2021/04/19 00:42:45;;;;;;;13.03;11.63;;;;;;;-1.82;98.20;95758.94;5107421;28;20500;-67
2021/04/19 00:45:14;;;;;;;10.17;9.00;;;;;;;-1.77;98.28;95762.00;5070675;28;21007;-67
2021/04/19 00:47:44;;;;;;;12.37;10.50;;;;;;;-1.70;98.83;95758.06;5109263;28;20532;-66
2021/04/19 00:50:16;;;;;;;12.93;10.50;;;;;;;-1.61;98.66;95752.25;5104991;28;20477;-67
2021/04/19 00:52:43;;;;;;;12.83;11.53;;;;;;;-1.56;98.94;95755.34;5088787;28;20464;-67
2021/04/19 00:55:12;;;;;;;10.50;9.33;;;;;;;-1.51;99.05;95753.25;5083226;28;20965;-67
2021/04/19 00:57:39;;;;;;;13.30;11.57;;;;;;;-1.46;99.35;95751.19;5102246;28;20972;-67
2021/04/19 01:00:10;;;;;;;11.77;10.57;;;;;;;-1.37;99.56;95754.88;5081107;28;20754;-67
2021/04/19 01:02:39;;;;;;;12.60;9.73;;;;;;;-1.32;99.61;95751.97;5082888;28;20957;-67
2021/04/19 01:05:09;;;;;;;12.67;11.37;;;;;;;-1.27;99.93;95755.06;5119401;27;20470;-67
2021/04/19 01:07:36;;;;;;;12.90;9.07;;;;;;;-1.24;100.00;95754.84;5115519;27;20831;-67
2021/04/19 01:10:04;;;;;;;15.23;11.60;;;;;;;-1.21;99.65;95739.06;5084877;28;20456;-67
2021/04/19 01:12:32;;;;;;;11.50;10.20;;;;;;;-1.21;100.00;95739.91;5102130;28;20467;-67
2021/04/19 01:14:59;;;;;;;11.83;10.63;;;;;;;-1.15;99.99;95743.81;5106449;28;20225;-67
2021/04/19 01:17:26;;;;;;;10.87;9.77;;;;;;;-1.17;99.75;95745.69;5089983;28;20619;-67
2021/04/19 01:19:54;;;;;;;10.90;9.80;;;;;;;-1.19;100.00;95742.38;5105374;28;20292;-67
2021/04/19 01:22:23;;;;;;;9.40;8.27;;;;;;;-1.21;99.61;95749.44;5087221;28;20224;-67
2021/04/19 01:24:50;;;;;;;10.60;9.43;;;;;;;-1.34;99.00;95749.47;5106335;28;20685;-67
2021/04/19 01:27:17;;;;;;;14.30;12.23;;;;;;;-1.47;97.98;95753.84;5082993;28;20311;-67
2021/04/19 01:29:44;;;;;;;11.17;9.93;;;;;;;-1.44;97.26;95751.06;5098942;27;20364;-67
2021/04/19 01:32:12;;;;;;;10.07;8.97;;;;;;;-1.48;96.73;95753.03;5097733;28;20541;-67
2021/04/19 01:34:40;;;;;;;12.63;9.80;;;;;;;-1.56;96.97;95755.34;5089226;28;20455;-67
2021/04/19 01:37:07;;;;;;;12.07;10.87;;;;;;;-1.73;96.83;95764.28;5090120;28;20487;-66
2021/04/19 01:39:36;;;;;;;10.07;8.03;;;;;;;-1.71;97.13;95759.00;5105089;28;20574;-67
2021/04/19 01:42:07;;;;;;;11.10;9.90;;;;;;;-1.69;97.51;95754.56;5087856;28;20489;-66
2021/04/19 01:44:34;;;;;;;12.47;11.20;;;;;;;-1.65;98.02;95755.97;5083919;28;20970;-66
2021/04/19 01:47:03;;;;;;;11.07;9.83;;;;;;;-1.60;98.22;95759.09;5082917;28;20462;-67
2021/04/19 01:49:31;;;;;;;12.63;11.43;;;;;;;-1.32;98.80;95746.78;5084849;28;20554;-67
2021/04/19 01:52:01;;;;;;;11.93;9.27;;;;;;;-1.15;99.32;95749.00;5083797;28;20469;-67
2021/04/19 01:54:29;;;;;;;13.27;11.83;;;;;;;-1.11;99.51;95740.06;5089254;28;20243;-67
2021/04/19 01:56:57;;;;;;;11.73;10.07;;;;;;;-1.04;99.62;95740.44;5095052;28;20464;-67
2021/04/19 01:59:27;;;;;;;12.33;10.90;;;;;;;-1.06;99.57;95737.97;5085458;28;21585;-66
2021/04/19 02:02:02;;;;;;;11.27;10.10;;;;;;;-1.08;100.00;95739.84;5083145;28;20505;-66
2021/04/19 02:04:40;;;;;;;13.23;11.50;;;;;;;-1.06;99.87;95737.16;5086737;28;20304;-66
2021/04/19 02:07:19;;;;;;;12.77;9.77;;;;;;;-1.10;99.94;95741.69;5088308;28;20459;-67
2021/04/19 02:09:55;;;;;;;11.13;9.60;;;;;;;-1.09;99.65;95743.38;5085847;28;20469;-67
2021/04/19 02:12:36;;;;;;;11.77;10.00;;;;;;;-1.07;99.68;95740.69;5086864;28;20264;-67
2021/04/19 02:15:07;;;;;;;12.20;10.87;;;;;;;-0.92;99.43;95732.59;5086703;28;20231;-67
2021/04/19 02:17:43;;;;;;;10.67;9.60;;;;;;;-0.92;99.77;95744.72;5087607;28;20558;-66
2021/04/19 02:20:15;;;;;;;12.57;11.27;;;;;;;-0.89;98.94;95739.34;5089587;28;20464;-67
2021/04/19 02:22:46;;;;;;;12.67;11.37;;;;;;;-0.88;98.22;95741.81;5093356;28;20315;-67
2021/04/19 02:25:17;;;;;;;11.13;10.10;;;;;;;-0.96;97.68;95744.13;5104258;28;20325;-66
2021/04/19 02:27:52;;;;;;;11.60;10.13;;;;;;;-0.97;97.32;95747.66;5096551;28;20469;-67
2021/04/19 02:30:21;;;;;;;11.43;10.10;;;;;;;-1.09;97.04;95745.97;5098834;28;20299;-67
2021/04/19 02:32:51;;;;;;;13.23;9.73;;;;;;;-1.09;96.83;95735.63;5087708;28;20793;-67
2021/04/19 02:35:25;;;;;;;9.90;8.67;;;;;;;-1.23;96.18;95736.59;5084141;28;20219;-66
2021/04/19 02:38:02;;;;;;;11.27;10.10;;;;;;;-1.14;96.64;95735.09;5068495;28;20464;-67
2021/04/19 02:40:36;;;;;;;10.87;9.73;;;;;;;-1.20;97.51;95735.53;5076492;28;20554;-67
2021/04/19 02:43:07;;;;;;;12.43;10.17;;;;;;;-1.31;97.33;95732.91;5104193;28;20225;-67
2021/04/19 02:45:39;;;;;;;11.77;10.43;;;;;;;-1.25;97.81;95732.47;5079308;28;20704;-67
2021/04/19 02:48:24;;;;;;;11.30;10.07;;;;;;;-1.24;97.53;95741.88;5103633;28;20475;-66
2021/04/19 02:51:06;;;;;;;10.10;9.10;;;;;;;-1.20;97.97;95738.13;5087952;28;20272;-67
2021/04/19 02:53:34;;;;;;;12.43;9.57;;;;;;;-1.20;97.64;95730.34;5079260;28;20699;-67
2021/04/19 02:56:05;;;;;;;10.47;9.33;;;;;;;-1.31;97.64;95736.31;5091756;28;20531;-67
2021/04/19 02:58:38;;;;;;;9.13;8.30;;;;;;;-1.33;97.83;95729.59;5095156;28;20469;-67
2021/04/19 03:01:07;;;;;;;14.50;12.07;;;;;;;-1.34;97.91;95735.72;5101187;28;20631;-67
2021/04/19 03:03:39;;;;;;;10.67;9.57;;;;;;;-1.37;97.68;95733.31;5071181;28;20233;-67
2021/04/19 03:06:08;;;;;;;12.37;9.13;;;;;;;-1.40;98.08;95733.56;5087661;28;20469;-67
2021/04/19 03:08:45;;;;;;;10.57;9.53;;;;;;;-1.45;98.14;95742.50;5100715;28;21166;-67
2021/04/19 03:11:18;;;;;;;14.90;11.73;;;;;;;-1.51;97.99;95737.72;5104626;27;20539;-67
2021/04/19 03:13:50;;;;;;;11.23;10.03;;;;;;;-1.46;97.93;95738.25;5079830;28;20460;-67
2021/04/19 03:16:29;;;;;;;15.90;9.07;;;;;;;-1.45;97.81;95737.31;5085516;28;20555;-67
2021/04/19 03:19:06;;;;;;;14.67;13.17;;;;;;;-1.34;97.64;95740.91;5083098;28;20513;-67
2021/04/19 03:21:37;;;;;;;11.40;9.43;;;;;;;-1.38;97.49;95734.25;5067290;28;20555;-67
2021/04/19 03:24:15;;;;;;;15.03;9.87;;;;;;;-1.31;97.68;95732.91;5079734;28;20464;-67
2021/04/19 03:26:55;;;;;;;13.37;11.70;;;;;;;-1.34;97.74;95730.53;5080204;28;20232;-67
2021/04/19 03:29:27;;;;;;;12.43;10.37;;;;;;;-1.32;98.21;95741.59;5094521;28;20869;-67
2021/04/19 03:32:13;;;;;;;14.30;12.90;;;;;;;-1.32;98.57;95741.59;5082354;28;20972;-66
2021/04/19 03:34:45;;;;;;;15.83;11.27;;;;;;;-1.28;99.18;95733.53;5100470;28;20464;-67
2021/04/19 03:37:19;;;;;;;13.67;11.37;;;;;;;-1.23;99.30;95731.41;5084000;28;20520;-67
2021/04/19 03:39:53;;;;;;;12.83;11.40;;;;;;;-1.18;99.75;95738.88;5084989;28;20457;-66
2021/04/19 03:42:25;;;;;;;16.70;10.97;;;;;;;-1.14;99.55;95735.09;5085861;28;20976;-67
2021/04/19 03:44:55;;;;;;;14.47;13.03;;;;;;;-1.12;99.73;95735.81;5097554;28;20467;-67
2021/04/19 03:47:44;;;;;;;11.10;9.77;;;;;;;-1.05;99.55;95729.25;5083066;28;20479;-66
2021/04/19 03:50:26;;;;;;;13.60;11.03;;;;;;;-1.03;100.00;95732.56;5103259;28;20471;-66
2021/04/19 03:52:59;;;;;;;15.00;13.23;;;;;;;-1.00;100.00;95723.75;5077619;28;20229;-67
2021/04/19 03:55:28;;;;;;;13.90;10.67;;;;;;;-0.99;99.89;95723.66;5076627;28;21009;-67
2021/04/19 03:57:57;;;;;;;13.53;11.87;;;;;;;-0.97;99.63;95723.53;5069350;28;20229;-67
2021/04/19 04:00:34;;;;;;;13.07;11.77;;;;;;;-1.02;99.87;95723.84;5083178;28;20226;-66
2021/04/19 04:03:21;;;;;;;15.17;9.40;;;;;;;-1.04;99.68;95724.91;5078293;28;20219;-64
2021/04/19 04:06:10;;;;;;;14.23;11.80;;;;;;;-1.07;99.99;95720.78;5104828;28;20516;-65
2021/04/19 04:08:39;;;;;;;12.37;10.07;;;;;;;-1.21;99.47;95721.78;5098472;28;20232;-65
2021/04/19 04:11:10;;;;;;;11.27;10.00;;;;;;;-1.21;99.12;95718.34;5081330;28;20246;-65
2021/04/19 04:13:37;;;;;;;16.37;11.63;;;;;;;-1.17;98.93;95725.81;5079845;28;20491;-65
2021/04/19 04:16:07;;;;;;;12.10;10.83;;;;;;;-1.12;98.98;95717.69;5086437;28;21017;-66
2021/04/19 04:18:46;;;;;;;13.97;12.57;;;;;;;-1.03;99.43;95719.59;5080341;28;20465;-65
2021/04/19 04:21:15;;;;;;;16.27;14.70;;;;;;;-0.96;99.54;95723.41;5104354;28;21021;-65
2021/04/19 04:23:46;;;;;;;16.13;13.90;;;;;;;-0.89;99.80;95719.44;5076627;28;20478;-65
2021/04/19 04:26:13;;;;;;;15.43;12.77;;;;;;;-0.83;99.71;95725.09;5102143;28;20496;-65
2021/04/19 04:28:44;;;;;;;15.40;13.73;;;;;;;-0.87;99.73;95738.28;5082687;28;20233;-65
2021/04/19 04:31:15;;;;;;;15.77;11.13;;;;;;;-0.98;98.98;95735.66;5098142;28;20295;-65
2021/04/19 04:33:47;;;;;;;13.60;11.93;;;;;;;-0.97;98.38;95739.06;5079394;28;20222;-64
2021/04/19 04:36:20;;;;;;;13.00;10.90;;;;;;;-1.01;97.88;95725.50;5096858;28;20225;-66
2021/04/19 04:38:51;;;;;;;14.47;12.57;;;;;;;-0.81;98.35;95728.44;5082899;28;20460;-65
2021/04/19 04:41:39;;;;;;;18.57;15.87;;;;;;;-0.59;99.04;95725.88;5097732;28;20468;-65
2021/04/19 04:44:08;;;;;;;19.40;14.43;;;;;;;-0.46;100.00;95730.97;5103672;28;20271;-64
2021/04/19 04:46:45;;;;;;;18.73;16.40;;;;;;;-0.34;100.00;95724.88;5101079;28;20222;-65
2021/04/19 04:49:15;;;;;;;17.47;14.63;;;;;;;-0.30;100.00;95727.09;5089397;28;20507;-65
2021/04/19 04:51:45;;;;;;;16.63;13.87;;;;;;;-0.32;100.00;95734.19;5096808;28;20229;-65
2021/04/19 04:54:15;;;;;;;17.13;13.53;;;;;;;-0.38;99.77;95739.81;5102066;28;20646;-64
2021/04/19 04:56:45;;;;;;;18.73;15.00;;;;;;;-0.33;98.95;95742.91;5078083;28;20285;-64
2021/04/19 04:59:13;;;;;;;14.93;13.00;;;;;;;-0.30;98.38;95741.84;5094457;28;20488;-64
2021/04/19 05:01:43;;;;;;;14.97;13.23;;;;;;;-0.31;98.32;95735.84;5097132;28;20229;-65
2021/04/19 05:04:11;;;;;;;18.93;14.97;;;;;;;-0.22;97.81;95733.50;5093368;28;20223;-64
2021/04/19 05:06:38;;;;;;;14.33;12.77;;;;;;;-0.20;97.94;95732.41;5095004;28;20216;-65
2021/04/19 05:09:08;;;;;;;15.07;13.43;;;;;;;-0.13;97.83;95744.00;5073833;28;20217;-64
2021/04/19 05:11:35;;;;;;;18.50;15.20;;;;;;;-0.09;98.06;95741.97;5100925;28;20226;-65
2021/04/19 05:14:03;;;;;;;17.90;13.30;;;;;;;0.02;98.43;95736.81;5099308;28;20231;-65
2021/04/19 05:16:31;;;;;;;14.93;12.47;;;;;;;0.07;98.77;95732.09;5100761;28;20229;-65
2021/04/19 05:19:01;;;;;;;18.90;15.23;;;;;;;0.09;98.54;95735.41;5090684;28;20390;-65
2021/04/19 05:21:28;;;;;;;19.77;14.57;;;;;;;0.16;99.02;95739.16;5093169;28;20250;-65
2021/04/19 05:23:55;;;;;;;17.63;15.33;;;;;;;0.21;98.83;95744.84;5092062;28;20224;-66
2021/04/19 05:26:22;;;;;;;16.37;14.37;;;;;;;0.25;98.85;95746.22;5098834;28;20229;-65
2021/04/19 05:28:51;;;;;;;20.77;15.33;;;;;;;0.32;98.92;95745.78;5097895;28;20231;-64
2021/04/19 05:31:19;;;;;;;14.97;13.37;;;;;;;0.37;98.29;95751.44;5097714;28;20509;-66
2021/04/19 05:33:47;;;;;;;13.77;12.47;;;;;;;0.41;98.01;95748.47;5091533;28;20630;-66
2021/04/19 05:36:16;;;;;;;17.27;13.63;;;;;;;0.48;98.57;95754.03;5100610;28;20310;-65
2021/04/19 05:38:44;;;;;;;16.77;15.03;;;;;;;0.51;98.58;95758.97;5096326;28;20717;-65
2021/04/19 05:41:13;;;;;;;14.57;12.63;;;;;;;0.57;98.01;95761.91;5085618;28;20651;-65
2021/04/19 05:43:40;;;;;;;52.70;15.90;;;;;;;0.79;98.17;95762.81;5087414;28;20261;-65
2021/04/19 05:46:08;;;;;;;23.13;19.40;;;;;;;0.95;97.51;95763.25;5097305;28;20395;-65
2021/04/19 05:48:35;;;;;;;38.83;29.17;;;;;;;1.03;97.69;95760.88;5080150;28;20704;-66
2021/04/19 05:51:09;;;;;;;32.73;25.40;;;;;;;1.13;97.62;95761.78;5081603;28;20230;-65
2021/04/19 05:53:37;;;;;;;28.47;20.70;;;;;;;1.28;97.10;95770.13;5092428;28;20216;-65
2021/04/19 05:56:09;;;;;;;19.70;17.57;;;;;;;1.41;97.52;95769.94;5098051;28;20212;-65
2021/04/19 05:58:46;;;;;;;23.13;18.53;;;;;;;1.53;96.85;95763.72;5099879;28;20470;-65
2021/04/19 06:01:18;;;;;;;23.50;19.27;;;;;;;1.67;97.47;95765.22;5094093;28;20910;-65
2021/04/19 06:03:55;;;;;;;23.93;18.70;;;;;;;1.80;97.24;95765.81;5091357;28;20292;-66
2021/04/19 06:06:31;;;;;;;18.23;15.93;;;;;;;1.94;96.84;95762.91;5099567;28;20231;-64
2021/04/19 06:09:05;;;;;;;21.37;15.53;;;;;;;2.11;96.41;95763.28;5081529;28;20236;-65
2021/04/19 06:11:44;;;;;;;18.63;15.53;;;;;;;2.30;97.10;95752.94;5098523;28;20232;-65
2021/04/19 06:14:29;;;;;;;20.83;17.27;;;;;;;2.53;96.09;95751.78;5051687;28;20638;-66
2021/04/19 06:17:00;;;;;;;16.87;15.07;;;;;;;2.70;96.35;95744.28;5084041;28;20225;-65
2021/04/19 06:19:28;;;;;;;22.80;17.80;;;;;;;2.87;96.21;95751.47;5087891;28;20225;-65
2021/04/19 06:21:55;;;;;;;22.53;15.63;;;;;;;2.94;96.26;95747.38;5090474;28;20264;-66
2021/04/19 06:24:23;;;;;;;20.77;18.53;;;;;;;3.20;95.40;95746.81;5071330;27;20581;-65
2021/04/19 06:26:51;;;;;;;19.13;17.23;;;;;;;3.38;94.86;95750.41;5079760;27;20212;-65
2021/04/19 06:29:26;;;;;;;15.10;13.43;;;;;;;3.52;93.29;95750.00;5101613;28;20304;-65
2021/04/19 06:31:54;;;;;;;19.80;17.70;;;;;;;3.64;92.65;95741.06;5080340;28;20228;-65
2021/04/19 06:34:21;;;;;;;20.43;18.23;;;;;;;3.75;92.59;95741.84;5081397;28;20233;-66
2021/04/19 06:36:50;;;;;;;22.67;15.30;;;;;;;3.84;91.97;95743.63;5094324;28;20661;-65
2021/04/19 06:39:19;;;;;;;20.90;14.30;;;;;;;3.98;91.88;95745.81;5095256;28;20241;-66
2021/04/19 06:41:47;;;;;;;15.83;14.23;;;;;;;4.08;91.20;95743.19;5079481;28;20226;-66
2021/04/19 06:44:15;;;;;;;17.37;15.57;;;;;;;4.10;91.08;95742.06;5097323;27;20271;-66
2021/04/19 06:46:44;;;;;;;19.77;17.57;;;;;;;4.31;89.86;95743.66;5098743;28;20633;-66
2021/04/19 06:49:13;;;;;;;23.53;17.40;;;;;;;4.43;89.80;95742.50;5097814;28;20465;-66
2021/04/19 06:51:40;;;;;;;14.43;12.93;;;;;;;4.48;89.61;95740.28;5099137;28;20342;-65
2021/04/19 06:54:09;;;;;;;16.67;15.00;;;;;;;4.65;89.33;95731.66;5097586;28;20221;-66
2021/04/19 06:56:38;;;;;;;17.40;15.70;;;;;;;4.73;88.35;95737.00;5102778;28;20223;-66
2021/04/19 06:59:10;;;;;;;17.43;13.93;;;;;;;4.78;88.24;95734.78;5098153;28;20713;-66
2021/04/19 07:01:38;;;;;;;17.87;16.07;;;;;;;4.91;88.38;95730.97;5083628;28;20767;-65
2021/04/19 07:04:09;;;;;;;17.77;15.67;;;;;;;5.00;89.44;95733.53;5095450;28;20241;-66
2021/04/19 07:06:38;;;;;;;17.87;14.87;;;;;;;5.09;89.08;95734.44;5085062;28;20224;-65
2021/04/19 07:09:17;;;;;;;15.53;14.03;;;;;;;5.23;88.03;95733.94;5079379;28;20589;-66
2021/04/19 07:11:45;;;;;;;16.27;14.63;;;;;;;5.34;87.90;95733.69;5097381;28;20261;-66
2021/04/19 07:14:15;;;;;;;18.97;15.43;;;;;;;5.51;87.08;95724.19;5093852;28;20637;-66
2021/04/19 07:16:42;;;;;;;15.10;13.43;;;;;;;5.67;87.15;95729.56;5075102;28;20224;-66
2021/04/19 07:19:10;;;;;;;16.50;13.80;;;;;;;5.83;84.67;95726.22;5096180;28;20234;-66
2021/04/19 07:21:38;;;;;;;15.50;14.20;;;;;;;5.90;84.55;95732.53;5097243;28;20545;-65
2021/04/19 07:24:06;;;;;;;16.17;14.17;;;;;;;5.93;85.16;95729.59;5091882;28;20222;-66
2021/04/19 07:26:33;;;;;;;18.43;15.47;;;;;;;6.08;84.41;95721.19;5100319;27;20304;-66
2021/04/19 07:29:01;;;;;;;22.77;15.93;;;;;;;6.31;84.19;95726.72;5083291;28;20669;-66
2021/04/19 07:31:45;;;;;;;14.70;13.20;;;;;;;6.53;82.94;95716.53;5094428;28;20290;-66
2021/04/19 07:34:17;;;;;;;14.57;12.40;;;;;;;6.69;80.91;95728.06;5094910;28;20651;-66
2021/04/19 07:36:49;;;;;;;13.50;12.27;;;;;;;6.77;81.69;95723.69;5094476;28;20225;-65
2021/04/19 07:39:18;;;;;;;14.17;12.77;;;;;;;6.82;80.71;95716.13;5097583;28;20216;-66
2021/04/19 07:41:47;;;;;;;14.53;13.03;;;;;;;7.03;80.81;95715.69;5100957;28;20229;-66
2021/04/19 07:44:36;;;;;;;12.83;11.47;;;;;;;7.17;80.28;95708.19;5098688;28;20216;-65
2021/04/19 07:47:32;;;;;;;14.40;12.97;;;;;;;7.30;79.25;95708.53;5098346;28;20360;-66
2021/04/19 07:50:03;;;;;;;14.07;11.67;;;;;;;7.46;77.35;95707.72;5100317;28;20222;-66
2021/04/19 07:52:31;;;;;;;11.73;10.77;;;;;;;7.61;77.17;95706.09;5103210;28;20682;-65
2021/04/19 07:55:13;;;;;;;13.50;11.27;;;;;;;7.76;76.12;95701.00;5097334;28;20221;-65
2021/04/19 07:58:01;;;;;;;12.23;11.07;;;;;;;7.92;75.38;95698.34;5070392;28;20217;-65
2021/04/19 08:00:31;;;;;;;12.47;11.37;;;;;;;8.14;74.47;95695.06;5081040;28;20250;-66
2021/04/19 08:03:04;;;;;;;14.33;12.13;;;;;;;8.18;73.71;95693.72;5099889;28;20295;-66
2021/04/19 08:05:34;;;;;;;15.37;13.97;;;;;;;8.24;74.24;95693.06;5094721;28;20222;-65
2021/04/19 08:08:01;;;;;;;12.53;11.50;;;;;;;8.26;72.70;95700.75;5096410;28;20218;-65
2021/04/19 08:10:30;;;;;;;12.57;11.50;;;;;;;8.37;72.37;95696.97;5098639;28;20236;-66
2021/04/19 08:13:03;;;;;;;10.53;9.63;;;;;;;8.56;70.24;95696.56;5094779;28;20230;-66
2021/04/19 08:15:30;;;;;;;11.73;10.83;;;;;;;8.55;69.86;95692.31;5098056;28;20239;-65
2021/04/19 08:18:06;;;;;;;10.20;9.03;;;;;;;8.83;69.74;95696.13;5098309;28;20222;-66
2021/04/19 08:20:34;;;;;;;11.03;9.90;;;;;;;8.64;70.39;95696.56;5090102;28;20217;-66
2021/04/19 08:23:10;;;;;;;11.70;10.73;;;;;;;8.73;69.80;95705.22;5102095;28;20233;-66
2021/04/19 08:25:42;;;;;;;10.87;9.83;;;;;;;8.94;69.20;95691.47;5098793;28;20297;-66
2021/04/19 08:28:13;;;;;;;12.63;11.43;;;;;;;9.22;68.15;95703.16;5091546;28;20276;-66
2021/04/19 08:30:41;;;;;;;11.33;10.30;;;;;;;9.55;66.21;95700.31;5097779;28;20289;-65
2021/04/19 08:33:10;;;;;;;11.87;9.50;;;;;;;9.98;64.90;95694.34;5099547;28;20277;-66
2021/04/19 08:35:38;;;;;;;11.17;10.33;;;;;;;9.99;64.94;95692.53;5078141;28;20317;-65
2021/04/19 08:38:06;;;;;;;9.00;8.10;;;;;;;10.30;65.01;95688.94;5099801;28;20217;-67
2021/04/19 08:40:35;;;;;;;10.27;9.30;;;;;;;10.23;65.33;95687.00;5104886;28;20231;-67
2021/04/19 08:43:06;;;;;;;10.43;9.63;;;;;;;10.47;62.71;95696.50;5079932;28;20235;-66
2021/04/19 08:45:34;;;;;;;8.90;8.23;;;;;;;10.82;61.79;95696.75;5098776;28;20614;-66
2021/04/19 08:48:01;;;;;;;10.23;9.43;;;;;;;11.21;62.24;95691.09;5091037;28;20289;-65
2021/04/19 08:50:29;;;;;;;8.40;7.70;;;;;;;11.41;61.14;95686.03;5091502;28;20308;-66
2021/04/19 08:52:57;;;;;;;9.77;8.70;;;;;;;11.63;59.66;95685.03;5092095;28;20311;-66
2021/04/19 08:55:25;;;;;;;10.77;9.80;;;;;;;11.73;58.13;95705.03;5084232;28;20234;-66
2021/04/19 08:57:53;;;;;;;8.53;7.93;;;;;;;11.72;57.96;95698.13;5077522;28;20235;-66
2021/04/19 09:00:25;;;;;;;8.77;8.07;;;;;;;11.32;59.41;95708.28;5095220;28;20233;-66
2021/04/19 09:02:52;;;;;;;9.43;8.47;;;;;;;11.11;59.23;95701.97;5102014;28;20272;-66
2021/04/19 09:05:23;;;;;;;8.33;7.53;;;;;;;11.23;58.51;95704.13;5102925;28;20221;-67
2021/04/19 09:08:02;;;;;;;7.90;7.30;;;;;;;10.95;59.20;95707.47;5093843;28;20259;-65
2021/04/19 09:10:47;;;;;;;9.17;8.53;;;;;;;11.25;60.32;95702.13;5096355;28;20282;-65
2021/04/19 09:13:25;;;;;;;8.53;7.70;;;;;;;11.55;59.14;95703.66;5100103;28;20718;-66
2021/04/19 09:15:53;;;;;;;11.93;8.97;;;;;;;11.64;58.29;95701.72;5107322;27;20710;-66
2021/04/19 09:18:21;;;;;;;8.33;7.60;;;;;;;11.75;58.08;95697.72;5096307;28;20328;-66
2021/04/19 09:20:50;;;;;;;8.40;7.70;;;;;;;11.82;57.93;95702.09;5098087;28;20727;-67
2021/04/19 09:23:19;;;;;;;8.33;7.73;;;;;;;11.92;58.65;95699.94;5103435;28;20223;-67
2021/04/19 09:25:46;;;;;;;8.80;8.07;;;;;;;11.83;58.67;95700.28;5102147;28;20730;-66
2021/04/19 09:28:14;;;;;;;7.40;6.73;;;;;;;11.93;57.76;95700.78;5097419;28;20231;-66
2021/04/19 09:30:47;;;;;;;9.63;8.83;;;;;;;11.84;55.96;95701.91;5102324;28;20722;-67
2021/04/19 09:33:20;;;;;;;8.70;7.80;;;;;;;11.62;56.22;95696.63;5083731;28;20352;-67
2021/04/19 09:35:49;;;;;;;8.70;8.00;;;;;;;11.64;58.01;95699.06;5099020;28;20252;-66
2021/04/19 09:38:52;;;;;;;6.67;6.17;;;;;;;11.86;57.57;95699.88;5104819;28;20244;-66
2021/04/19 09:41:21;;;;;;;9.37;8.27;;;;;;;11.93;56.83;95691.00;5099913;28;20256;-66
2021/04/19 09:43:53;;;;;;;10.57;8.80;;;;;;;12.06;56.33;95700.03;5100090;28;20727;-67
2021/04/19 09:46:26;;;;;;;8.10;7.40;;;;;;;12.05;56.41;95691.28;5098579;28;20228;-66
2021/04/19 09:48:59;;;;;;;8.27;7.47;;;;;;;12.31;57.40;95687.19;5094342;28;20367;-66
2021/04/19 09:51:32;;;;;;;9.13;8.43;;;;;;;12.62;55.58;95687.63;5097118;28;20228;-66
2021/04/19 09:54:06;;;;;;;8.07;7.27;;;;;;;13.08;55.75;95682.53;5103720;27;20252;-67
2021/04/19 09:56:37;;;;;;;6.80;6.20;;;;;;;13.38;54.32;95682.22;5098578;27;20756;-67
2021/04/19 09:59:05;;;;;;;7.27;6.77;;;;;;;13.64;52.87;95678.81;5097645;28;20225;-66
2021/04/19 10:01:33;;;;;;;8.03;7.40;;;;;;;14.49;54.24;95675.31;5102394;28;20224;-67
2021/04/19 10:04:00;;;;;;;9.77;8.87;;;;;;;15.06;51.00;95663.06;5100097;28;20231;-67
2021/04/19 10:06:37;;;;;;;8.43;7.60;;;;;;;16.10;51.18;95661.81;5093672;28;20285;-67
2021/04/19 10:09:09;;;;;;;7.60;7.00;;;;;;;16.54;50.24;95659.94;5094112;28;20307;-66
2021/04/19 10:11:43;;;;;;;8.40;7.80;;;;;;;16.76;49.16;95657.72;5096520;28;20282;-67
2021/04/19 10:14:11;;;;;;;8.27;7.63;;;;;;;15.31;47.67;95654.38;5091374;28;20244;-67
2021/04/19 10:16:46;;;;;;;9.80;9.00;;;;;;;14.85;49.71;95657.25;5102916;28;20763;-67
2021/04/19 10:19:13;;;;;;;8.20;7.50;;;;;;;13.86;50.83;95660.84;5098941;28;20224;-66
2021/04/19 10:21:41;;;;;;;8.33;7.63;;;;;;;13.37;52.85;95662.03;5093461;27;20216;-67
2021/04/19 10:24:16;;;;;;;8.60;7.80;;;;;;;13.43;51.55;95655.09;5099016;28;20240;-66
2021/04/19 10:26:43;;;;;;;5.50;5.10;;;;;;;13.32;51.31;95659.16;5101218;27;20220;-67
2021/04/19 10:29:13;;;;;;;6.97;6.37;;;;;;;13.20;52.19;95653.63;5076624;28;20279;-67
2021/04/19 10:31:47;;;;;;;6.67;6.17;;;;;;;13.53;52.62;95650.22;5090224;28;20237;-66
2021/04/19 10:34:14;;;;;;;7.20;6.50;;;;;;;14.17;50.03;95641.63;5103509;27;20728;-67
2021/04/19 10:36:46;;;;;;;8.93;8.03;;;;;;;14.59;50.03;95644.84;5080055;28;20229;-66
2021/04/19 10:39:15;;;;;;;6.47;5.97;;;;;;;15.61;50.05;95634.13;5102306;27;20641;-67
2021/04/19 10:41:42;;;;;;;6.57;6.07;;;;;;;16.62;48.72;95629.53;5104621;28;20725;-66
2021/04/19 10:44:10;;;;;;;7.63;7.03;;;;;;;16.81;46.96;95619.72;5104085;28;20282;-65
2021/04/19 10:46:38;;;;;;;6.07;5.63;;;;;;;17.30;46.25;95624.81;5098894;27;20685;-67
2021/04/19 10:49:07;;;;;;;6.60;6.10;;;;;;;17.73;46.28;95621.13;5099409;28;20584;-67
2021/04/19 10:51:35;;;;;;;5.40;5.00;;;;;;;18.24;45.71;95622.34;5097868;28;20224;-66
2021/04/19 10:54:05;;;;;;;6.03;5.67;;;;;;;18.13;42.61;95621.31;5098690;27;20736;-68
2021/04/19 10:56:33;;;;;;;4.73;4.43;;;;;;;18.23;42.87;95614.56;5096874;28;20697;-67
2021/04/19 10:59:05;;;;;;;10.27;6.60;;;;;;;17.28;43.46;95618.91;5089904;28;20236;-67
2021/04/19 11:01:34;;;;;;;6.80;6.30;;;;;;;16.68;42.89;95618.84;5098897;28;20660;-66
2021/04/19 11:04:03;;;;;;;5.30;4.97;;;;;;;16.44;44.60;95617.03;5096204;28;20737;-67
2021/04/19 11:06:30;;;;;;;6.17;5.67;;;;;;;15.93;45.21;95618.16;5091240;28;20542;-67
2021/04/19 11:08:59;;;;;;;4.60;4.30;;;;;;;15.55;46.08;95610.25;5094028;28;20908;-67
2021/04/19 11:11:48;;;;;;;5.17;4.73;;;;;;;15.53;47.37;95610.44;5091802;28;20274;-66
2021/04/19 11:14:18;;;;;;;6.07;5.47;;;;;;;15.56;48.26;95610.00;5072001;28;20262;-67
2021/04/19 11:16:57;;;;;;;5.97;5.47;;;;;;;15.55;48.37;95611.06;5097007;28;20252;-67
2021/04/19 11:19:35;;;;;;;7.10;6.50;;;;;;;15.34;48.20;95606.88;5093841;28;20216;-67
2021/04/19 11:22:22;;;;;;;5.77;5.37;;;;;;;15.41;48.58;95609.50;5074771;28;20228;-67
2021/04/19 11:25:15;;;;;;;4.27;3.87;;;;;;;15.53;49.29;95599.78;5101823;28;20474;-67
2021/04/19 11:27:44;;;;;;;8.13;5.57;;;;;;;15.45;49.45;95604.56;5101530;28;20252;-66
2021/04/19 11:30:19;;;;;;;7.20;6.63;;;;;;;14.44;51.75;95608.69;5100365;28;20217;-67
2021/04/19 11:32:47;;;;;;;5.80;5.40;;;;;;;15.00;50.73;95608.13;5096607;28;20654;-67
2021/04/19 11:35:24;;;;;;;5.20;4.87;;;;;;;15.24;50.88;95600.41;5092073;28;20307;-67
2021/04/19 11:37:58;;;;;;;5.90;5.50;;;;;;;15.36;49.66;95601.34;5095452;28;20225;-67
2021/04/19 11:40:27;;;;;;;5.03;4.63;;;;;;;15.63;48.93;95599.34;5102349;28;20212;-67
2021/04/19 11:42:55;;;;;;;5.37;4.97;;;;;;;15.86;48.60;95599.56;5095176;28;20228;-68